KCQT

Los Angeles / USC Campus Downtown Airport

Los Angeles, California, USA
METAR KCQT 201947Z AUTO 00000KT 9SM CLR 29/19 A2991 RMK AO2 SLP123 T02890189 $
Observed Flight Rules
Aug-20 @ 19:47 UTC (42 minutes ago) Visual Flight Rules
Visibility Clouds
9 miles
  • Clear skies
Temperatures Readings
Current 29°C / 84°F
Dewpoint 19°C / 66°F
Humidity 55%
Altimeter 29.91" Hg
Pressure 1012.3 hPa
Elevation 56
METAR KCQT 201947Z AUTO 00000KT 9SM CLR 29/19 A2991 RMK AO2 SLP123 T02890189 $
Observed Flight Rules
Aug-20 @ 19:47 UTC
(42 minutes ago)
VFR
Clouds
  • Clear skies
Temperature Dewpoint
29°C / 84°F 19°C / 66°F
Humidity Altimeter Pressure
55% 29.91" Hg 1012.3 hPa